Time;durP1;ratioP1;P1;durP2;ratioP2;P2;SDS_P1;SDS_P2;PMS_P1;PMS_P2;Temp;Humidity;BMP_temperature;BMP_pressure;BME280_temperature;BME280_humidity;BME280_pressure;Samples;Min_cycle;Max_cycle;Signal;HPM_P1;HPM_P2
2023/10/05 00:02:08;;;;;;;0.70;0.70;;;;;;;10.45;78.75;100646.97;5115305;28;20394;-66
2023/10/05 00:04:44;;;;;;;1.17;1.10;;;;;;;10.63;78.05;100637.00;5114599;28;20059;-66
2023/10/05 00:07:19;;;;;;;2.05;1.83;;;;;;;10.70;77.68;100635.44;5114970;28;20046;-67
2023/10/05 00:09:49;;;;;;;0.50;0.50;;;;;;;10.89;78.14;100626.31;5114647;28;20043;-67
2023/10/05 00:12:22;;;;;;;1.48;1.38;;;;;;;11.03;77.24;100620.53;5114584;28;20046;-67
2023/10/05 00:15:11;;;;;;;2.15;1.08;;;;;;;11.12;76.89;100617.22;5114535;28;20047;-67
2023/10/05 00:17:40;;;;;;;3.50;1.02;;;;;;;11.15;76.87;100602.81;5114450;28;20132;-67
2023/10/05 00:20:15;;;;;;;2.53;1.42;;;;;;;11.20;76.71;100595.19;5114364;28;20521;-67
2023/10/05 00:22:44;;;;;;;3.00;0.93;;;;;;;11.25;76.21;100598.66;5114395;28;20078;-68
2023/10/05 00:25:14;;;;;;;0.77;0.77;;;;;;;11.32;75.79;100606.41;5114205;28;20108;-66
2023/10/05 00:27:45;;;;;;;0.65;0.65;;;;;;;11.31;75.57;100603.81;5114583;28;20406;-67
2023/10/05 00:30:17;;;;;;;0.70;0.70;;;;;;;11.26;75.86;100605.47;5113823;28;20044;-67
2023/10/05 00:32:52;;;;;;;2.60;0.70;;;;;;;11.28;76.04;100603.78;5113109;28;20047;-67
2023/10/05 00:35:26;;;;;;;0.60;0.50;;;;;;;11.34;75.68;100609.84;5114615;27;20039;-67
2023/10/05 00:37:57;;;;;;;0.82;0.82;;;;;;;11.35;75.67;100606.44;5114420;28;20079;-67
2023/10/05 00:40:34;;;;;;;2.17;1.58;;;;;;;11.41;75.53;100600.53;5113877;28;20059;-66
2023/10/05 00:43:07;;;;;;;0.60;0.60;;;;;;;11.34;75.20;100597.06;5114445;28;20502;-66
2023/10/05 00:45:39;;;;;;;0.50;0.50;;;;;;;11.37;75.20;100603.91;5112759;28;20047;-67
2023/10/05 00:48:19;;;;;;;1.33;1.10;;;;;;;11.37;75.09;100606.47;5114043;28;20052;-67
2023/10/05 00:50:51;;;;;;;0.57;0.57;;;;;;;11.31;74.62;100608.94;5112926;28;20083;-66
2023/10/05 00:53:21;;;;;;;1.00;0.93;;;;;;;11.28;74.86;100599.53;5113937;28;20048;-66
2023/10/05 00:56:04;;;;;;;1.45;1.13;;;;;;;11.33;74.58;100597.91;5114439;28;20071;-67
2023/10/05 00:58:38;;;;;;;0.50;0.50;;;;;;;11.20;74.64;100600.31;5113102;28;20130;-67
2023/10/05 01:01:14;;;;;;;0.30;0.30;;;;;;;11.17;74.78;100595.16;5113978;28;20052;-67
2023/10/05 01:04:11;;;;;;;1.40;0.85;;;;;;;11.08;74.47;100600.16;5114710;28;20048;-67
2023/10/05 01:06:42;;;;;;;0.50;0.50;;;;;;;10.95;74.77;100598.28;5113941;28;20054;-66
2023/10/05 01:09:40;;;;;;;0.40;0.40;;;;;;;10.83;74.39;100595.56;5113161;28;20047;-67
2023/10/05 01:12:13;;;;;;;0.57;0.57;;;;;;;10.75;74.69;100591.22;5113860;28;20483;-66
2023/10/05 01:14:50;;;;;;;1.25;1.15;;;;;;;10.73;75.02;100592.91;5112843;28;20061;-68
2023/10/05 01:17:25;;;;;;;1.17;0.90;;;;;;;10.79;74.96;100594.69;5113652;28;20048;-67
2023/10/05 01:19:58;;;;;;;0.98;0.93;;;;;;;10.76;75.14;100582.75;5112894;28;20079;-66
2023/10/05 01:22:32;;;;;;;0.40;0.40;;;;;;;10.68;74.83;100579.22;5113721;28;20047;-66
2023/10/05 01:25:04;;;;;;;0.40;0.40;;;;;;;10.77;74.94;100574.22;5112514;28;20050;-67
2023/10/05 01:27:34;;;;;;;0.80;0.80;;;;;;;10.83;75.12;100570.03;5112449;28;20052;-66
2023/10/05 01:30:04;;;;;;;1.15;1.05;;;;;;;10.95;74.29;100563.38;5113730;28;20047;-66
2023/10/05 01:32:34;;;;;;;0.50;0.50;;;;;;;11.00;74.42;100566.00;5112670;28;20043;-66
2023/10/05 01:35:06;;;;;;;0.50;0.50;;;;;;;11.04;74.39;100560.06;5112715;28;20075;-67
2023/10/05 01:37:43;;;;;;;0.90;0.90;;;;;;;11.10;74.23;100557.59;5113540;28;20085;-65
2023/10/05 01:40:23;;;;;;;0.93;0.93;;;;;;;11.14;74.07;100559.34;5113131;28;20127;-68
2023/10/05 01:42:53;;;;;;;1.88;0.68;;;;;;;11.12;73.91;100555.91;5117539;28;20040;-66
2023/10/05 01:45:28;;;;;;;2.17;1.75;;;;;;;11.16;73.97;100555.09;5116241;28;20039;-65
2023/10/05 01:48:12;;;;;;;0.50;0.50;;;;;;;11.11;74.02;100551.66;5117729;28;20054;-66
2023/10/05 01:50:54;;;;;;;0.60;0.43;;;;;;;11.01;74.09;100537.94;5117736;28;20455;-67
2023/10/05 01:53:23;;;;;;;;;;;;;;;11.06;74.13;100526.03;5116820;28;20478;-68
2023/10/05 01:55:53;;;;;;;0.57;0.57;;;;;;;11.09;73.96;100525.22;5117518;28;20282;-68
2023/10/05 01:58:34;;;;;;;0.43;0.43;;;;;;;11.12;73.83;100540.59;5117446;28;20077;-67
2023/10/05 02:01:06;;;;;;;2.20;1.27;;;;;;;10.88;74.00;100545.41;5117468;28;20134;-66
2023/10/05 02:03:37;;;;;;;0.40;0.40;;;;;;;10.59;74.40;100545.91;5099406;28;20455;-66
2023/10/05 02:06:11;;;;;;;0.63;0.63;;;;;;;10.45;75.16;100544.00;5115798;28;20067;-67
2023/10/05 02:08:41;;;;;;;0.50;0.50;;;;;;;10.38;75.20;100550.75;5117213;28;20051;-66
2023/10/05 02:11:19;;;;;;;0.93;0.93;;;;;;;10.35;75.60;100548.13;5116888;28;20063;-67
2023/10/05 02:13:49;;;;;;;1.05;0.80;;;;;;;10.39;75.96;100544.78;5117178;28;20465;-66
2023/10/05 02:16:20;;;;;;;0.75;0.75;;;;;;;10.31;75.58;100548.94;5117228;28;20051;-66
2023/10/05 02:18:51;;;;;;;0.47;0.47;;;;;;;10.25;75.96;100546.28;5098671;28;20062;-66
2023/10/05 02:21:29;;;;;;;0.55;0.55;;;;;;;10.12;76.56;100543.53;5115637;28;20075;-67
2023/10/05 02:24:10;;;;;;;0.60;0.60;;;;;;;10.07;76.78;100556.19;5115488;28;20085;-66
2023/10/05 02:27:08;;;;;;;0.80;0.65;;;;;;;9.87;76.82;100543.13;5116571;28;20048;-66
2023/10/05 02:29:35;;;;;;;0.55;0.55;;;;;;;9.87;76.78;100542.25;5116354;28;20042;-66
2023/10/05 02:32:05;;;;;;;0.70;0.70;;;;;;;9.83;76.93;100545.59;5116454;28;20050;-66
2023/10/05 02:34:41;;;;;;;0.70;0.70;;;;;;;9.83;76.90;100546.47;5116516;28;20272;-65
2023/10/05 02:37:11;;;;;;;0.40;0.40;;;;;;;9.67;77.27;100553.84;5116409;28;20047;-66
2023/10/05 02:39:41;;;;;;;0.50;0.50;;;;;;;9.63;77.86;100552.91;5116173;28;20453;-65
2023/10/05 02:42:14;;;;;;;;;;;;;;;9.49;77.46;100556.06;5115512;28;20063;-66
2023/10/05 02:44:45;;;;;;;0.50;0.50;;;;;;;9.45;78.43;100553.44;5115205;28;19985;-66
2023/10/05 02:47:16;;;;;;;0.77;0.77;;;;;;;9.40;77.90;100559.31;5116153;28;20487;-67
2023/10/05 02:49:47;;;;;;;0.40;0.40;;;;;;;9.33;78.30;100565.97;5116157;27;20047;-65
2023/10/05 02:52:17;;;;;;;1.27;0.90;;;;;;;9.24;78.16;100567.47;5115280;28;20039;-66
2023/10/05 02:54:48;;;;;;;0.65;0.65;;;;;;;9.20;78.77;100573.38;5116119;28;20087;-66
2023/10/05 02:57:20;;;;;;;0.40;0.40;;;;;;;9.20;78.55;100576.78;5114837;28;20057;-66
2023/10/05 02:59:50;;;;;;;0.57;0.57;;;;;;;9.24;78.22;100578.53;5114828;28;20044;-65
2023/10/05 03:02:19;;;;;;;0.50;0.50;;;;;;;9.27;78.63;100583.69;5114996;28;20046;-66
2023/10/05 03:04:48;;;;;;;0.85;0.85;;;;;;;9.17;78.91;100586.03;5115809;28;20066;-65
2023/10/05 03:07:26;;;;;;;0.73;0.73;;;;;;;9.17;78.61;100592.00;5115725;28;20047;-67
2023/10/05 03:09:59;;;;;;;0.60;0.60;;;;;;;9.16;79.20;100595.38;5116104;28;20047;-67
2023/10/05 03:12:38;;;;;;;0.50;0.50;;;;;;;9.20;78.79;100597.16;5115792;28;20054;-66
2023/10/05 03:15:09;;;;;;;0.70;0.70;;;;;;;9.19;79.26;100600.50;5114779;28;20048;-65
2023/10/05 03:17:45;;;;;;;2.92;1.70;;;;;;;9.21;79.48;100609.03;5114428;28;20043;-66
2023/10/05 03:20:18;;;;;;;1.20;0.52;;;;;;;9.18;78.91;100598.81;5116200;28;20120;-66
2023/10/05 03:22:47;;;;;;;1.05;1.02;;;;;;;9.19;79.08;100605.59;5114350;28;20048;-65
2023/10/05 03:25:19;;;;;;;0.50;0.50;;;;;;;9.26;78.55;100592.16;5115461;28;20057;-66
2023/10/05 03:27:50;;;;;;;9.23;1.08;;;;;;;9.18;78.48;100598.81;5114533;28;20540;-66
2023/10/05 03:30:23;;;;;;;0.63;0.63;;;;;;;8.97;78.88;100603.47;5115495;28;20517;-66
2023/10/05 03:32:52;;;;;;;2.75;1.58;;;;;;;8.96;79.20;100605.97;5115575;28;20062;-65
2023/10/05 03:35:26;;;;;;;0.50;0.50;;;;;;;9.08;78.89;100596.91;5115590;28;20051;-65
2023/10/05 03:37:58;;;;;;;0.65;0.65;;;;;;;9.12;79.24;100588.50;5115470;28;20380;-66
2023/10/05 03:40:35;;;;;;;0.80;0.80;;;;;;;9.14;79.45;100591.91;5114025;28;20052;-66
2023/10/05 03:43:06;;;;;;;0.60;0.60;;;;;;;9.16;79.86;100600.47;5114432;28;20483;-66
2023/10/05 03:45:39;;;;;;;0.60;0.60;;;;;;;9.19;80.03;100603.06;5115644;28;20441;-66
2023/10/05 03:48:10;;;;;;;0.90;0.90;;;;;;;9.26;79.42;100598.97;5115052;28;20036;-66
2023/10/05 03:50:40;;;;;;;0.35;0.35;;;;;;;9.20;79.25;100597.16;5115004;28;20051;-65
2023/10/05 03:53:15;;;;;;;0.80;0.80;;;;;;;9.04;79.87;100597.69;5114863;28;20406;-65
2023/10/05 03:55:47;;;;;;;0.40;0.40;;;;;;;9.15;80.29;100593.66;5113700;28;20047;-66
2023/10/05 03:58:17;;;;;;;1.88;0.73;;;;;;;9.17;79.61;100604.72;5114867;28;20051;-66
2023/10/05 04:00:49;;;;;;;0.65;0.65;;;;;;;9.02;78.77;100609.50;5115663;28;20039;-65
2023/10/05 04:03:24;;;;;;;0.90;0.90;;;;;;;9.00;79.23;100613.72;5114989;28;20047;-66
2023/10/05 04:05:53;;;;;;;1.05;0.98;;;;;;;9.11;79.74;100607.16;5113704;28;20048;-65
2023/10/05 04:08:23;;;;;;;1.53;1.43;;;;;;;9.23;79.06;100602.31;5114655;28;20050;-66
2023/10/05 04:10:52;;;;;;;0.63;0.63;;;;;;;9.35;79.36;100602.53;5114926;28;20036;-66
2023/10/05 04:13:24;;;;;;;16.58;1.15;;;;;;;9.40;78.73;100595.84;5114450;28;20118;-66
2023/10/05 04:15:53;;;;;;;0.98;0.80;;;;;;;9.45;78.03;100594.22;5114541;28;20054;-66
2023/10/05 04:18:23;;;;;;;0.50;0.50;;;;;;;9.24;78.65;100593.81;5114746;28;20035;-67
2023/10/05 04:20:55;;;;;;;1.13;1.08;;;;;;;9.18;78.81;100598.81;5114428;28;20612;-67
2023/10/05 04:23:28;;;;;;;0.50;0.50;;;;;;;9.18;78.69;100597.94;5114344;28;20048;-66
2023/10/05 04:25:57;;;;;;;0.90;0.85;;;;;;;9.24;78.73;100598.06;5114381;28;20048;-67
2023/10/05 04:28:34;;;;;;;0.65;0.65;;;;;;;9.18;78.31;100598.81;5114552;28;20483;-66
2023/10/05 04:31:11;;;;;;;1.63;1.52;;;;;;;9.33;78.23;100606.72;5114577;28;20048;-65
2023/10/05 04:33:43;;;;;;;1.90;1.58;;;;;;;9.38;78.96;100602.59;5114705;28;20059;-66
2023/10/05 04:36:13;;;;;;;0.30;0.30;;;;;;;9.48;78.00;100602.78;5114555;28;20048;-67
2023/10/05 04:38:43;;;;;;;22.33;1.30;;;;;;;9.59;78.42;100596.16;5114042;28;20047;-66
2023/10/05 04:41:13;;;;;;;1.05;0.98;;;;;;;9.62;78.31;100586.03;5113986;28;20154;-66
2023/10/05 04:43:44;;;;;;;1.40;1.30;;;;;;;9.56;77.54;100583.38;5114339;28;20052;-66
2023/10/05 04:46:17;;;;;;;3.40;2.15;;;;;;;9.57;77.12;100590.19;5114327;28;20048;-67
2023/10/05 04:51:29;;;;;;;1.20;1.07;;;;;;;9.25;77.37;100590.47;5114352;28;20043;-65
2023/10/05 04:53:59;;;;;;;0.82;0.82;;;;;;;9.15;77.47;100587.69;5114495;28;20046;-65
2023/10/05 04:56:40;;;;;;;1.70;1.55;;;;;;;8.97;77.48;100593.31;5114182;28;20482;-65
2023/10/05 05:04:41;;;;;;;1.30;0.70;;;;;;;9.15;77.64;100591.09;5114166;28;20498;-66
2023/10/05 05:07:11;;;;;;;0.47;0.47;;;;;;;9.17;77.43;100597.09;5114200;28;20117;-66
2023/10/05 05:09:41;;;;;;;;;;;;;;;9.20;77.84;100596.28;5114151;28;20051;-66
2023/10/05 05:12:16;;;;;;;0.38;0.38;;;;;;;9.26;78.26;100597.25;5114137;28;20289;-65
2023/10/05 05:14:49;;;;;;;0.95;0.90;;;;;;;9.34;77.67;100600.81;5114049;28;20134;-66
2023/10/05 05:17:22;;;;;;;1.38;0.70;;;;;;;9.38;77.38;100607.69;5117959;28;20058;-67
2023/10/05 05:19:52;;;;;;;0.50;0.50;;;;;;;9.42;76.93;100606.06;5118309;28;20051;-66
2023/10/05 05:22:20;;;;;;;;;;;;;;;9.50;76.80;100599.44;5118298;28;20051;-66
2023/10/05 05:24:50;;;;;;;0.30;0.30;;;;;;;9.54;76.81;100597.78;5117935;28;20358;-67
2023/10/05 05:27:22;;;;;;;0.50;0.50;;;;;;;9.62;76.90;100596.22;5117659;28;20044;-66
2023/10/05 05:29:53;;;;;;;0.50;0.50;;;;;;;9.60;76.32;100603.00;5118103;28;20075;-67
2023/10/05 05:32:22;;;;;;;1.02;0.93;;;;;;;9.58;76.75;100600.41;5117689;28;20040;-67
2023/10/05 05:34:52;;;;;;;0.30;0.30;;;;;;;9.55;76.27;100599.50;5117669;28;20054;-66
2023/10/05 05:37:28;;;;;;;0.80;0.80;;;;;;;9.64;76.43;100599.66;5117472;28;20035;-66
2023/10/05 05:40:03;;;;;;;0.85;0.85;;;;;;;9.68;76.15;100591.22;5117256;28;20130;-65
2023/10/05 05:42:34;;;;;;;0.82;0.75;;;;;;;9.71;76.88;100598.94;5118324;28;20075;-65
2023/10/05 05:45:09;;;;;;;1.33;0.82;;;;;;;9.77;76.52;100591.38;5117736;28;20487;-66
2023/10/05 05:47:38;;;;;;;0.60;0.60;;;;;;;9.84;76.17;100605.94;5117208;28;20040;-67
2023/10/05 05:50:17;;;;;;;0.50;0.50;;;;;;;9.79;76.56;100605.03;5117295;28;20043;-67
2023/10/05 05:52:48;;;;;;;0.50;0.50;;;;;;;9.93;76.99;100603.56;5117605;28;20044;-65
2023/10/05 05:55:20;;;;;;;0.50;0.50;;;;;;;10.08;76.75;100603.81;5117771;28;20047;-67
2023/10/05 05:57:51;;;;;;;0.68;0.68;;;;;;;10.14;76.66;100601.41;5116770;28;20039;-68
2023/10/05 06:00:22;;;;;;;0.60;0.60;;;;;;;10.11;76.55;100598.75;5114784;28;20036;-65
2023/10/05 06:02:51;;;;;;;1.73;1.55;;;;;;;10.12;76.71;100605.63;5110619;28;20032;-67
2023/10/05 06:05:23;;;;;;;0.60;0.60;;;;;;;10.21;77.22;100600.66;5099770;28;20103;-65
2023/10/05 06:07:52;;;;;;;0.47;0.45;;;;;;;10.24;76.49;100605.81;5096761;28;20051;-66
2023/10/05 06:10:28;;;;;;;0.52;0.52;;;;;;;10.17;76.55;100604.00;5096965;28;20505;-66
2023/10/05 06:12:58;;;;;;;0.65;0.65;;;;;;;10.17;76.13;100604.00;5096441;28;20098;-65
2023/10/05 06:15:30;;;;;;;0.82;0.82;;;;;;;10.39;77.00;100600.91;5096218;28;20123;-66
2023/10/05 06:18:00;;;;;;;0.98;0.68;;;;;;;10.63;76.22;100603.81;5096288;28;20055;-66
2023/10/05 06:20:29;;;;;;;0.90;0.90;;;;;;;10.80;75.99;100604.03;5096280;28;20048;-67
2023/10/05 06:23:00;;;;;;;0.90;0.90;;;;;;;10.87;75.35;100602.47;5096317;28;20503;-66
2023/10/05 06:25:29;;;;;;;0.80;0.80;;;;;;;10.90;75.29;100599.91;5096508;28;20040;-68
2023/10/05 06:27:59;;;;;;;0.93;0.87;;;;;;;10.92;75.17;100601.66;5094811;28;20080;-66
2023/10/05 06:30:32;;;;;;;0.90;0.90;;;;;;;10.87;75.54;100594.78;5096781;28;20269;-68
2023/10/05 06:33:07;;;;;;;0.38;0.38;;;;;;;10.97;75.31;100599.16;5096084;28;20044;-66
2023/10/05 06:35:36;;;;;;;1.40;1.30;;;;;;;11.15;75.12;100597.69;5096044;28;20560;-66
2023/10/05 06:38:05;;;;;;;0.60;0.60;;;;;;;11.27;75.03;100595.28;5096271;28;20041;-66
2023/10/05 06:40:34;;;;;;;0.53;0.53;;;;;;;11.36;74.72;100584.28;5095776;28;20044;-66
2023/10/05 06:43:05;;;;;;;0.70;0.70;;;;;;;11.38;74.62;100586.03;5096200;28;20040;-66
2023/10/05 06:45:37;;;;;;;0.90;0.60;;;;;;;11.44;74.34;100582.69;5095803;28;20272;-67
2023/10/05 06:48:06;;;;;;;0.40;0.40;;;;;;;11.46;74.62;100583.56;5095753;28;20131;-65
2023/10/05 06:50:37;;;;;;;;;;;;;;;11.65;74.10;100592.25;5096402;28;20472;-64
2023/10/05 06:53:07;;;;;;;0.70;0.70;;;;;;;11.77;74.12;100593.25;5095832;28;19924;-66
2023/10/05 06:55:35;;;;;;;0.60;0.60;;;;;;;11.92;73.94;100590.84;5095545;28;20131;-65
2023/10/05 06:58:08;;;;;;;9.82;2.30;;;;;;;11.94;73.77;100594.28;5095616;28;20048;-67
2023/10/05 07:00:38;;;;;;;0.60;0.60;;;;;;;12.01;73.69;100593.47;5095765;28;20037;-65
2023/10/05 07:03:10;;;;;;;0.65;0.63;;;;;;;12.10;73.71;100596.09;5095543;28;20055;-65
2023/10/05 07:05:40;;;;;;;0.85;0.85;;;;;;;12.23;73.43;100598.75;5095614;28;20044;-65
2023/10/05 07:08:09;;;;;;;0.40;0.40;;;;;;;12.24;73.23;100596.19;5095593;28;20036;-66
2023/10/05 07:10:37;;;;;;;7.47;1.53;;;;;;;12.26;73.26;100601.34;5099594;28;20073;-65
2023/10/05 07:13:08;;;;;;;0.93;0.93;;;;;;;12.33;73.11;100606.53;5104792;28;20123;-66
2023/10/05 07:15:40;;;;;;;1.05;0.95;;;;;;;12.51;72.88;100616.88;5114311;28;20046;-67
2023/10/05 07:18:09;;;;;;;0.98;0.95;;;;;;;12.63;72.66;100618.63;5115603;28;20131;-66
2023/10/05 07:20:41;;;;;;;0.60;0.60;;;;;;;12.68;72.22;100616.97;5115478;28;20494;-65
2023/10/05 07:23:10;;;;;;;0.73;0.73;;;;;;;12.78;72.21;100613.63;5115424;28;20044;-65
2023/10/05 07:25:41;;;;;;;0.55;0.55;;;;;;;12.86;71.94;100606.81;5115432;28;20047;-66
2023/10/05 07:28:14;;;;;;;0.65;0.65;;;;;;;12.99;71.63;100611.16;5116048;28;20059;-67
2023/10/05 07:30:46;;;;;;;0.52;0.52;;;;;;;13.09;71.37;100609.50;5115529;28;20047;-67
2023/10/05 07:33:15;;;;;;;2.03;1.02;;;;;;;13.11;70.85;100611.25;5115839;28;20067;-66
2023/10/05 07:35:44;;;;;;;0.55;0.55;;;;;;;13.12;70.92;100606.97;5115318;28;20112;-65
2023/10/05 07:38:14;;;;;;;0.85;0.80;;;;;;;13.23;70.95;100603.59;5115136;28;20126;-67
2023/10/05 07:40:43;;;;;;;0.82;0.82;;;;;;;13.24;70.63;100610.44;5115065;28;20090;-66
2023/10/05 07:43:13;;;;;;;0.77;0.73;;;;;;;13.34;70.54;100612.16;5115020;28;20067;-65
2023/10/05 07:45:41;;;;;;;0.53;0.53;;;;;;;13.49;70.67;100600.22;5115101;28;20039;-65
2023/10/05 07:48:12;;;;;;;1.95;1.25;;;;;;;13.63;69.91;100598.56;5114889;28;20045;-66
2023/10/05 07:50:41;;;;;;;3.75;1.10;;;;;;;13.69;69.79;100596.00;5115247;28;20054;-66
2023/10/05 07:53:10;;;;;;;0.95;0.95;;;;;;;13.78;69.49;100596.88;5114970;28;20069;-65
2023/10/05 07:55:39;;;;;;;0.70;0.70;;;;;;;13.97;68.97;100596.03;5114956;28;20039;-66
2023/10/05 07:58:08;;;;;;;0.82;0.77;;;;;;;14.09;68.18;100600.28;5115089;28;20492;-66
2023/10/05 08:00:37;;;;;;;0.50;0.50;;;;;;;14.20;67.87;100601.16;5115024;28;20043;-66
2023/10/05 08:03:09;;;;;;;0.70;0.70;;;;;;;14.33;67.18;100592.59;5114766;28;20044;-66
2023/10/05 08:05:40;;;;;;;0.50;0.50;;;;;;;14.49;67.22;100589.16;5114680;28;20100;-66
2023/10/05 08:08:10;;;;;;;0.63;0.63;;;;;;;14.58;66.87;100588.28;5114567;28;20052;-66
2023/10/05 08:10:39;;;;;;;3.90;1.08;;;;;;;14.68;66.27;100577.97;5114669;28;20486;-65
2023/10/05 08:13:08;;;;;;;0.68;0.68;;;;;;;14.73;66.27;100583.13;5114800;28;20098;-67
2023/10/05 08:15:37;;;;;;;4.72;1.65;;;;;;;14.80;66.38;100573.66;5114816;28;20040;-66
2023/10/05 08:18:06;;;;;;;0.70;0.70;;;;;;;14.95;66.15;100579.59;5114670;28;20039;-67
2023/10/05 08:20:36;;;;;;;0.60;0.60;;;;;;;15.13;65.51;100586.38;5114887;28;20492;-66
2023/10/05 08:23:08;;;;;;;0.60;0.60;;;;;;;15.23;65.08;100573.47;5114343;28;20126;-66
2023/10/05 08:25:37;;;;;;;0.70;0.70;;;;;;;15.37;64.85;100575.97;5114500;28;20495;-65
2023/10/05 08:28:09;;;;;;;1.20;0.93;;;;;;;15.55;64.12;100569.91;5113066;28;20052;-66
2023/10/05 08:30:45;;;;;;;13.07;1.92;;;;;;;15.74;63.57;100569.72;5114180;28;20457;-66
2023/10/05 08:33:19;;;;;;;1.00;0.60;;;;;;;15.83;62.94;100567.09;5114454;28;20051;-66
2023/10/05 08:35:49;;;;;;;0.70;0.70;;;;;;;15.85;62.38;100567.09;5114493;28;20047;-67
2023/10/05 08:38:23;;;;;;;0.85;0.68;;;;;;;15.79;62.37;100567.97;5114040;28;20130;-67
2023/10/05 08:40:53;;;;;;;0.47;0.47;;;;;;;15.73;62.41;100565.47;5114302;28;20075;-68
2023/10/05 08:43:22;;;;;;;2.15;1.05;;;;;;;15.66;62.16;100563.81;5114034;28;20040;-67
2023/10/05 08:45:51;;;;;;;0.60;0.60;;;;;;;15.60;62.62;100562.97;5114342;28;20121;-67
2023/10/05 08:48:28;;;;;;;0.55;0.55;;;;;;;15.61;62.70;100562.97;5113004;28;20043;-66
2023/10/05 08:51:09;;;;;;;1.23;1.13;;;;;;;15.88;63.00;100562.75;5113644;28;20069;-67
2023/10/05 08:53:44;;;;;;;0.80;0.80;;;;;;;16.10;62.38;100555.69;5114257;28;20047;-67
2023/10/05 08:56:15;;;;;;;0.38;0.38;;;;;;;16.34;61.87;100565.75;5113911;28;20055;-67
2023/10/05 08:58:46;;;;;;;0.55;0.55;;;;;;;16.51;61.36;100569.06;5114650;28;20040;-66
2023/10/05 09:01:29;;;;;;;0.77;0.77;;;;;;;16.58;61.22;100562.13;5114110;28;20055;-67
2023/10/05 09:04:11;;;;;;;0.70;0.70;;;;;;;16.77;61.09;100555.91;5114205;28;20051;-67
2023/10/05 09:06:48;;;;;;;0.60;0.60;;;;;;;16.77;60.88;100549.88;5114147;28;20047;-67
2023/10/05 09:09:37;;;;;;;1.83;1.25;;;;;;;16.77;61.17;100545.59;5113978;28;20036;-67
2023/10/05 09:12:19;;;;;;;0.50;0.50;;;;;;;17.07;61.51;100544.34;5114209;28;20491;-67
2023/10/05 09:15:04;;;;;;;0.55;0.55;;;;;;;17.18;61.15;100542.47;5113993;28;20040;-67
2023/10/05 09:17:35;;;;;;;1.75;0.95;;;;;;;17.27;60.90;100532.88;5113972;28;20047;-68
2023/10/05 09:20:21;;;;;;;0.50;0.50;;;;;;;17.35;60.38;100538.78;5113673;28;20120;-66
2023/10/05 09:22:50;;;;;;;0.77;0.77;;;;;;;17.55;60.20;100537.66;5113944;28;20406;-67
2023/10/05 09:25:27;;;;;;;1.20;0.60;;;;;;;17.77;59.66;100526.97;5113619;28;20078;-66
2023/10/05 09:28:07;;;;;;;0.40;0.40;;;;;;;17.94;59.60;100530.13;5113651;28;20487;-68
2023/10/05 09:30:55;;;;;;;0.60;0.60;;;;;;;17.95;59.17;100512.88;5113562;28;20097;-66
2023/10/05 09:33:27;;;;;;;0.50;0.50;;;;;;;18.00;58.96;100521.41;5113641;28;20051;-67
2023/10/05 09:36:06;;;;;;;1.17;1.08;;;;;;;18.03;58.41;100516.19;5113507;28;20043;-69
2023/10/05 09:38:38;;;;;;;1.20;1.10;;;;;;;17.90;57.81;100519.88;5113617;28;20502;-68
2023/10/05 09:41:09;;;;;;;0.52;0.52;;;;;;;17.93;57.47;100524.97;5112172;28;20048;-69
2023/10/05 09:43:42;;;;;;;0.50;0.50;;;;;;;17.89;57.39;100513.00;5114291;28;20479;-67
2023/10/05 09:46:11;;;;;;;4.10;0.93;;;;;;;17.88;56.97;100516.44;5114221;28;20391;-67
2023/10/05 09:48:41;;;;;;;0.65;0.65;;;;;;;17.98;56.90;100521.44;5113386;28;20475;-67
2023/10/05 09:51:10;;;;;;;0.50;0.50;;;;;;;18.07;56.50;100518.69;5113843;28;20051;-67
2023/10/05 09:53:41;;;;;;;0.50;0.50;;;;;;;18.24;56.25;100515.78;5113340;28;20544;-66
2023/10/05 09:56:13;;;;;;;0.73;0.60;;;;;;;18.43;56.21;100519.72;5113676;28;20520;-65
2023/10/05 09:58:53;;;;;;;0.70;0.70;;;;;;;18.57;55.73;100515.19;5113320;28;20043;-66
2023/10/05 10:01:23;;;;;;;1.33;1.23;;;;;;;18.59;55.56;100508.25;5114422;28;20138;-66
2023/10/05 10:03:54;;;;;;;;;;;;;;;18.61;55.24;100510.81;5117770;28;20070;-67
2023/10/05 10:06:28;;;;;;;1.17;0.77;;;;;;;18.77;54.80;100501.84;5116936;28;19919;-67
2023/10/05 10:09:08;;;;;;;0.60;0.60;;;;;;;18.94;54.69;100498.91;5116990;28;20051;-68
2023/10/05 10:11:39;;;;;;;1.27;1.17;;;;;;;19.02;54.33;100494.41;5116835;28;20051;-66
2023/10/05 10:14:09;;;;;;;0.60;0.60;;;;;;;19.16;54.10;100494.97;5117144;28;20060;-66
2023/10/05 10:16:41;;;;;;;0.77;0.77;;;;;;;19.30;53.82;100487.72;5116849;28;20051;-67
2023/10/05 10:19:19;;;;;;;0.50;0.50;;;;;;;19.46;53.73;100483.91;5117051;28;20398;-67
2023/10/05 10:21:57;;;;;;;0.98;0.63;;;;;;;19.60;53.35;100470.66;5116751;28;20058;-65
2023/10/05 10:24:29;;;;;;;1.13;0.88;;;;;;;19.72;53.01;100486.75;5116744;28;20043;-67
2023/10/05 10:27:08;;;;;;;0.40;0.40;;;;;;;19.73;52.93;100477.19;5116677;28;20407;-67
2023/10/05 10:29:44;;;;;;;0.93;0.93;;;;;;;19.69;52.86;100471.25;5116892;28;20039;-67
2023/10/05 10:32:18;;;;;;;0.82;0.82;;;;;;;19.72;52.91;100471.19;5116506;28;20055;-66
2023/10/05 10:34:55;;;;;;;1.05;0.60;;;;;;;19.80;52.70;100473.56;5116845;28;20484;-67
2023/10/05 10:37:44;;;;;;;0.50;0.50;;;;;;;19.76;52.58;100467.63;5116753;28;20048;-67
2023/10/05 10:40:25;;;;;;;0.50;0.50;;;;;;;19.75;52.15;100452.97;5116210;28;20101;-67
2023/10/05 10:43:06;;;;;;;1.08;0.80;;;;;;;19.74;52.22;100453.88;5116368;28;20548;-68
2023/10/05 10:45:41;;;;;;;0.65;0.65;;;;;;;19.80;51.83;100450.25;5116573;28;20131;-68
2023/10/05 10:48:20;;;;;;;0.75;0.63;;;;;;;19.75;51.75;100452.97;5116250;28;20036;-68
2023/10/05 10:50:52;;;;;;;0.43;0.43;;;;;;;19.86;51.76;100453.56;5116163;28;20399;-68
2023/10/05 10:53:30;;;;;;;0.90;0.85;;;;;;;19.86;51.74;100453.56;5116056;28;20061;-68
2023/10/05 10:56:04;;;;;;;1.25;1.15;;;;;;;20.01;51.62;100440.16;5116051;28;20048;-69
2023/10/05 10:58:36;;;;;;;0.60;0.60;;;;;;;20.20;51.34;100434.50;5116398;28;20043;-69
2023/10/05 11:01:13;;;;;;;1.70;0.70;;;;;;;20.37;50.82;100429.72;5114887;28;20126;-68
2023/10/05 11:03:44;;;;;;;0.75;0.75;;;;;;;20.61;50.44;100429.84;5115960;28;20526;-68
2023/10/05 11:06:15;;;;;;;0.50;0.50;;;;;;;20.73;50.39;100420.84;5116406;28;20046;-69
2023/10/05 11:08:51;;;;;;;0.60;0.60;;;;;;;20.78;49.76;100421.53;5116204;28;20050;-68
2023/10/05 11:11:20;;;;;;;0.95;0.88;;;;;;;20.90;49.67;100415.16;5115648;28;20097;-69
2023/10/05 11:13:55;;;;;;;2.97;1.50;;;;;;;20.99;49.54;100413.13;5115091;28;20126;-67
2023/10/05 11:16:35;;;;;;;1.50;1.20;;;;;;;21.06;49.30;100417.25;5116178;28;20044;-69
2023/10/05 11:19:04;;;;;;;0.70;0.70;;;;;;;20.93;49.55;100405.50;5115579;28;20043;-67
2023/10/05 11:21:50;;;;;;;0.68;0.60;;;;;;;21.12;49.02;100393.66;5116186;28;20441;-68
2023/10/05 11:24:18;;;;;;;0.50;0.50;;;;;;;21.29;48.18;100383.59;5115519;28;20044;-67
2023/10/05 11:27:05;;;;;;;0.50;0.50;;;;;;;21.35;47.97;100383.38;5115486;28;20310;-69
2023/10/05 11:29:48;;;;;;;0.63;0.63;;;;;;;21.40;47.51;100380.66;5115495;28;20406;-68
2023/10/05 11:32:25;;;;;;;1.08;0.98;;;;;;;21.28;47.75;100381.88;5115409;28;20043;-67
2023/10/05 11:35:15;;;;;;;0.60;0.60;;;;;;;21.24;47.67;100376.84;5115527;28;20055;-68
2023/10/05 11:37:58;;;;;;;0.60;0.60;;;;;;;21.26;47.86;100378.47;5115212;28;20055;-68
2023/10/05 11:40:34;;;;;;;0.40;0.40;;;;;;;21.34;47.83;100384.28;5115118;28;20058;-69
2023/10/05 11:43:06;;;;;;;0.52;0.52;;;;;;;21.38;47.76;100383.28;5115079;28;20047;-68
2023/10/05 11:45:37;;;;;;;0.77;0.77;;;;;;;21.48;47.44;100378.63;5115038;28;20071;-67
2023/10/05 11:48:13;;;;;;;0.38;0.38;;;;;;;21.66;47.14;100378.00;5115121;28;20050;-68
2023/10/05 11:50:51;;;;;;;0.88;0.85;;;;;;;21.75;46.97;100376.81;5114875;28;20057;-69
2023/10/05 11:53:24;;;;;;;0.40;0.40;;;;;;;21.79;46.28;100378.41;5115001;28;20055;-67
2023/10/05 11:55:55;;;;;;;1.25;1.05;;;;;;;21.75;45.99;100372.47;5115159;28;20043;-68
2023/10/05 11:58:25;;;;;;;0.60;0.60;;;;;;;21.75;45.90;100376.81;5115181;28;20437;-69
2023/10/05 12:00:56;;;;;;;0.80;0.80;;;;;;;21.77;45.48;100377.59;5114790;28;20134;-68
2023/10/05 12:03:28;;;;;;;1.15;1.05;;;;;;;21.68;45.59;100373.59;5115027;28;20062;-68
2023/10/05 12:06:00;;;;;;;0.75;0.70;;;;;;;21.71;45.58;100359.66;5115003;28;20083;-68